Time;durP1;ratioP1;P1;durP2;ratioP2;P2;SDS_P1;SDS_P2;PMS_P1;PMS_P2;Temp;Humidity;BMP_temperature;BMP_pressure;BME280_temperature;BME280_humidity;BME280_pressure;Samples;Min_cycle;Max_cycle;Signal;HPM_P1;HPM_P2
2021/04/15 00:02:28;;;;;;;;;;;;;;;10.34;69.22;100719.48;1681535;85;20637;-70
2021/04/15 00:05:01;;;;;;;;;;;;;;;10.33;69.31;100718.64;1674640;86;20251;-70
2021/04/15 00:07:34;;;;;;;;;;;;;;;10.31;69.51;100714.02;1681590;85;20152;-70
2021/04/15 00:10:10;;;;;;;;;;;;;;;10.31;69.57;100718.41;1675009;86;20157;-70
2021/04/15 00:12:42;;;;;;;;;;;;;;;10.29;69.68;100716.40;1680599;85;20295;-70
2021/04/15 00:15:17;;;;;;;;;;;;;;;10.25;69.72;100714.49;1674745;86;20280;-70
2021/04/15 00:17:49;;;;;;;;;;;;;;;10.17;69.84;100711.67;1682362;85;20236;-70
2021/04/15 00:20:22;;;;;;;;;;;;;;;10.13;69.96;100706.31;1674859;86;20152;-70
2021/04/15 00:22:57;;;;;;;;;;;;;;;10.09;70.09;100721.87;1681621;85;20244;-70
2021/04/15 00:25:29;;;;;;;;;;;;;;;10.06;70.23;100720.33;1674688;86;20172;-70
2021/04/15 00:28:01;;;;;;;;;;;;;;;10.04;70.47;100724.86;1682287;85;20236;-70
2021/04/15 00:30:34;;;;;;;;;;;;;;;10.05;70.55;100737.47;1674904;86;20232;-71
2021/04/15 00:33:07;;;;;;;;;;;;;;;10.03;70.67;100745.41;1681328;85;20264;-71
2021/04/15 00:35:41;;;;;;;;;;;;;;;10.01;70.65;100752.55;1674783;86;20256;-71
2021/04/15 00:38:13;;;;;;;;;;;;;;;9.97;70.62;100750.30;1682293;85;20279;-71
2021/04/15 00:40:45;;;;;;;;;;;;;;;9.88;70.77;100756.26;1676116;85;20240;-70
2021/04/15 00:43:18;;;;;;;;;;;;;;;9.80;70.89;100756.02;1685260;85;20236;-70
2021/04/15 00:45:51;;;;;;;;;;;;;;;9.72;70.98;100762.33;1678163;85;20176;-69
2021/04/15 00:48:39;;;;;;;;;;;;;;;9.65;71.13;100771.09;1686531;85;20208;-70
2021/04/15 00:51:14;;;;;;;;;;;;;;;9.58;71.18;100778.23;1679078;85;20232;-70
2021/04/15 00:53:51;;;;;;;;;;;;;;;9.48;71.27;100775.00;1678149;85;20236;-71
2021/04/15 00:56:24;;;;;;;;;;;;;;;9.42;71.43;100775.94;1677112;85;20610;-70
2021/04/15 00:58:56;;;;;;;;;;;;;;;9.35;71.64;100776.05;1686847;85;20164;-71
2021/04/15 01:01:29;;;;;;;;;;;;;;;9.30;71.89;100773.78;1679476;85;20192;-70
2021/04/15 01:04:01;;;;;;;;;;;;;;;9.26;72.16;100769.75;1685696;85;20235;-70
2021/04/15 01:06:33;;;;;;;;;;;;;;;9.24;72.44;100773.42;1679153;85;20342;-70
2021/04/15 01:09:06;;;;;;;;;;;;;;;9.24;72.74;100774.73;1685020;85;20229;-70
2021/04/15 01:11:58;;;;;;;;;;;;;;;9.24;72.90;100776.84;1678389;85;20236;-69
2021/04/15 01:14:54;;;;;;;;;;;;;;;9.24;72.92;100780.76;1678261;85;20299;-70
2021/04/15 01:17:39;;;;;;;;;;;;;;;9.27;72.99;100788.84;1678780;85;20164;-70
2021/04/15 01:20:26;;;;;;;;;;;;;;;9.32;72.91;100799.31;1680002;85;20342;-69
2021/04/15 01:23:17;;;;;;;;;;;;;;;9.33;72.79;100789.70;1685139;85;20193;-70
2021/04/15 01:26:11;;;;;;;;;;;;;;;9.31;72.58;100792.91;1679891;85;20617;-70
2021/04/15 01:28:53;;;;;;;;;;;;;;;9.29;72.44;100791.70;1685187;85;20204;-70
2021/04/15 01:31:31;;;;;;;;;;;;;;;9.28;72.40;100793.13;1686068;85;20160;-71
2021/04/15 01:34:07;;;;;;;;;;;;;;;9.29;72.36;100791.70;1651149;85;20204;-71
2021/04/15 01:36:54;;;;;;;;;;;;;;;9.31;72.53;100790.30;1686315;85;20605;-70
2021/04/15 01:39:29;;;;;;;;;;;;;;;9.35;72.72;100796.95;1677954;85;20192;-70
2021/04/15 01:42:07;;;;;;;;;;;;;;;9.40;72.93;100797.44;1678262;85;20176;-68
2021/04/15 01:44:42;;;;;;;;;;;;;;;9.45;73.02;100796.63;1678618;85;20235;-70
2021/04/15 01:47:17;;;;;;;;;;;;;;;9.53;72.97;100798.16;1678530;85;20208;-70
2021/04/15 01:49:52;;;;;;;;;;;;;;;9.59;72.82;100794.27;1678739;85;20631;-70
2021/04/15 01:52:24;;;;;;;;;;;;;;;9.64;72.54;100800.81;1686015;85;20550;-70
2021/04/15 01:55:08;;;;;;;;;;;;;;;9.68;72.14;100800.94;1678437;85;20574;-69
2021/04/15 01:57:49;;;;;;;;;;;;;;;9.72;71.83;100808.89;1678235;85;20614;-70
2021/04/15 02:00:24;;;;;;;;;;;;;;;9.77;71.63;100809.84;1686380;85;20396;-70
2021/04/15 02:02:59;;;;;;;;;;;;;;;9.80;71.36;100807.00;1685964;85;20219;-71
2021/04/15 02:05:35;;;;;;;;;;;;;;;9.79;71.10;100794.39;1685454;85;20227;-70
2021/04/15 02:08:11;;;;;;;;;;;;;;;9.77;70.92;100794.16;1686435;85;20609;-69
2021/04/15 02:10:50;;;;;;;;;;;;;;;9.71;70.82;100796.78;1679763;85;20267;-69
2021/04/15 02:13:22;;;;;;;;;;;;;;;9.65;70.85;100804.27;1685617;85;20176;-70
2021/04/15 02:16:03;;;;;;;;;;;;;;;9.57;70.89;100795.70;1679682;85;20579;-70
2021/04/15 02:18:38;;;;;;;;;;;;;;;9.50;70.96;100804.45;1678640;85;20271;-70
2021/04/15 02:21:15;;;;;;;;;;;;;;;9.41;70.96;100809.08;1679961;85;20252;-70
2021/04/15 02:23:50;;;;;;;;;;;;;;;9.34;71.08;100808.34;1685439;85;20172;-71
2021/04/15 02:26:30;;;;;;;;;;;;;;;9.26;71.24;100805.48;1679481;85;20625;-71
2021/04/15 02:29:17;;;;;;;;;;;;;;;9.20;71.25;100808.07;1677525;85;20232;-70
2021/04/15 02:32:04;;;;;;;;;;;;;;;9.12;71.37;100798.65;1686748;85;20197;-70
2021/04/15 02:35:02;;;;;;;;;;;;;;;9.06;71.48;100799.58;1679254;85;20156;-70
2021/04/15 02:37:37;;;;;;;;;;;;;;;9.00;71.58;100801.36;1686537;85;20224;-69
2021/04/15 02:40:12;;;;;;;;;;;;;;;8.92;71.68;100804.52;1679810;85;20264;-70
2021/04/15 02:42:44;;;;;;;;;;;;;;;8.87;71.87;100806.63;1679365;85;20565;-70
2021/04/15 02:45:28;;;;;;;;;;;;;;;8.80;72.00;100804.11;1684705;84;20172;-69
2021/04/15 02:48:00;;;;;;;;;;;;;;;8.77;72.12;100805.16;1673590;83;20165;-69
2021/04/15 02:50:32;;;;;;;;;;;;;;;8.76;72.17;100806.59;1682388;85;20227;-69
2021/04/15 02:53:08;;;;;;;;;;;;;;;8.74;72.09;100807.18;1675052;86;20187;-70
2021/04/15 02:55:46;;;;;;;;;;;;;;;8.72;72.17;100807.27;1681239;85;20240;-70
2021/04/15 02:58:21;;;;;;;;;;;;;;;8.72;72.33;100818.17;1674571;86;20193;-69
2021/04/15 03:00:54;;;;;;;;;;;;;;;8.72;72.49;100812.49;1682211;85;20188;-69
2021/04/15 03:03:29;;;;;;;;;;;;;;;8.75;72.56;100818.80;1674430;86;20302;-71
2021/04/15 03:06:09;;;;;;;;;;;;;;;8.78;72.54;100821.20;1681255;85;20583;-70
2021/04/15 03:08:41;;;;;;;;;;;;;;;8.83;72.52;100815.64;1674554;86;20591;-70
2021/04/15 03:11:39;;;;;;;;;;;;;;;8.92;72.52;100821.96;1682322;85;20244;-70
2021/04/15 03:14:13;;;;;;;;;;;;;;;9.02;72.52;100821.19;1674628;86;20180;-68
2021/04/15 03:16:46;;;;;;;;;;;;;;;9.11;72.17;100816.59;1682489;85;20232;-70
2021/04/15 03:19:24;;;;;;;;;;;;;;;9.17;71.97;100827.07;1674091;86;20233;-69
2021/04/15 03:22:11;;;;;;;;;;;;;;;9.24;71.70;100829.59;1682258;85;20267;-68
2021/04/15 03:24:45;;;;;;;;;;;;;;;9.27;71.37;100824.11;1674098;86;20598;-68
2021/04/15 03:27:23;;;;;;;;;;;;;;;9.28;71.14;100836.24;1682333;85;20622;-69
2021/04/15 03:30:17;;;;;;;;;;;;;;;9.27;70.98;100841.09;1673960;86;20244;-70
2021/04/15 03:32:52;;;;;;;;;;;;;;;9.27;70.86;100841.94;1682204;85;20239;-69
2021/04/15 03:35:44;;;;;;;;;;;;;;;9.29;70.84;100847.06;1673582;86;20260;-68
2021/04/15 03:38:24;;;;;;;;;;;;;;;9.28;70.68;100842.78;1680940;85;20208;-67
2021/04/15 03:41:11;;;;;;;;;;;;;;;9.29;70.67;100848.38;1675139;86;20248;-69
2021/04/15 03:43:53;;;;;;;;;;;;;;;9.30;70.62;100847.41;1681879;85;20233;-68
2021/04/15 03:46:37;;;;;;;;;;;;;;;9.38;70.83;100851.61;1680278;85;20638;-70
2021/04/15 03:49:15;;;;;;;;;;;;;;;9.54;70.77;100852.59;1674229;85;20177;-68
2021/04/15 03:51:52;;;;;;;;;;;;;;;9.69;70.45;100857.98;1681787;85;20275;-68
2021/04/15 03:54:27;;;;;;;;;;;;;;;9.78;69.92;100857.28;1673068;86;20232;-68
2021/04/15 03:56:59;;;;;;;;;;;;;;;9.89;69.61;100866.44;1679160;85;20307;-69
2021/04/15 03:59:40;;;;;;;;;;;;;;;10.05;69.27;100863.84;1657423;85;20208;-69
2021/04/15 04:02:17;;;;;;;;;;;;;;;10.22;69.00;100863.06;1673444;86;20196;-68
2021/04/15 04:04:52;;;;;;;;;;;;;;;10.51;68.45;100863.75;1679685;85;20394;-68
2021/04/15 04:07:43;;;;;;;;;;;;;;;10.87;67.90;100864.42;1678299;85;20224;-68
2021/04/15 04:10:30;;;;;;;;;;;;;;;11.65;66.77;100872.78;1670394;86;20207;-70
2021/04/15 04:13:25;;;;;;;;;;;;;;;12.59;64.74;100872.09;1675202;85;20271;-70
2021/04/15 04:16:20;;;;;;;;;;;;;;;13.17;62.53;100867.33;1670855;86;20192;-70
2021/04/15 04:18:56;;;;;;;;;;;;;;;13.40;61.37;100870.49;1664993;85;20203;-69
2021/04/15 04:21:37;;;;;;;;;;;;;;;13.94;60.39;100877.29;1673431;86;20196;-68
2021/04/15 04:24:12;;;;;;;;;;;;;;;14.67;58.74;100868.55;1702904;82;20782;-69
2021/04/15 04:26:52;;;;;;;;;;;;;;;15.37;56.95;100870.91;1709669;82;20269;-69
2021/04/15 04:29:38;;;;;;;;;;;;;;;16.07;55.36;100877.38;1705740;84;20627;-68
2021/04/15 04:32:14;;;;;;;;;;;;;;;16.73;53.27;100869.64;1700965;84;20246;-66
2021/04/15 04:38:42;;;;;;;;;;;;;;;17.81;50.34;100875.23;1687190;83;20688;-70
2021/04/15 04:41:18;;;;;;;;;;;;;;;18.49;48.15;100884.34;1705396;82;20349;-69
2021/04/15 04:43:56;;;;;;;;;;;;;;;18.90;47.20;100888.95;1696108;82;20211;-69
2021/04/15 04:46:42;;;;;;;;;;;;;;;19.29;46.03;100883.58;1676481;85;20315;-66
2021/04/15 04:52:55;;;;;;;;;;;;;;;20.32;43.79;100886.00;1700642;82;20205;-66
2021/04/15 04:59:35;;;;;;;;;;;;;;;21.36;41.08;100882.42;1705053;83;20782;-59
2021/04/15 05:06:09;;;;;;;;;;;;;;;22.37;38.98;100872.14;1702681;84;20305;-62
2021/04/15 05:12:37;;;;;;;;;;;;;;;23.47;36.60;100866.05;1704149;84;20218;-62
2021/04/15 05:15:10;;;;;;;;;;;;;;;23.87;35.79;100864.99;1703156;84;20316;-65
2021/04/15 05:17:42;;;;;;;;;;;;;;;24.30;35.00;100866.69;1702430;84;20277;-67
2021/04/15 05:20:18;;;;;;;;;;;;;;;24.80;34.18;100860.22;1703183;84;20277;-65
2021/04/15 05:23:00;;;;;;;;;;;;;;;25.30;33.21;100855.27;1703754;84;20273;-64
2021/04/15 05:25:41;;;;;;;;;;;;;;;25.78;32.44;100855.52;1703016;84;20786;-61
2021/04/15 05:28:15;;;;;;;;;;;;;;;26.31;31.72;100849.12;1703462;84;20320;-60
2021/04/15 05:30:51;;;;;;;;;;;;;;;26.66;30.43;100851.47;1703060;84;20426;-60
2021/04/15 05:33:25;;;;;;;;;;;;;;;26.79;30.27;100858.05;1704162;84;20318;-65
2021/04/15 05:36:04;;;;;;;;;;;;;;;27.08;29.87;100850.52;1702970;84;20269;-64
2021/04/15 05:38:45;;;;;;;;;;;;;;;27.48;29.26;100856.63;1703471;84;20406;-64
2021/04/15 05:41:40;;;;;;;;;;;;;;;27.81;28.84;100852.33;1702898;84;20272;-63
2021/04/15 05:44:22;;;;;;;;;;;;;;;28.18;28.12;100856.14;1703902;84;20831;-66
2021/04/15 05:46:54;;;;;;;;;;;;;;;28.42;27.52;100857.73;1702431;84;20270;-69
2021/04/15 05:49:29;;;;;;;;;;;;;;;28.75;27.20;100863.28;1703716;84;20273;-69
2021/04/15 05:52:04;;;;;;;;;;;;;;;29.07;26.45;100859.53;1702750;84;20289;-68
2021/04/15 05:54:36;;;;;;;;;;;;;;;29.13;26.11;100854.53;1707920;84;20396;-71
2021/04/15 05:57:21;;;;;;;;;;;;;;;29.21;25.87;100850.11;1700989;82;20321;-67
2021/04/15 06:00:05;;;;;;;;;;;;;;;29.24;25.83;100845.58;1701606;84;20330;-70
2021/04/15 06:02:50;;;;;;;;;;;;;;;29.43;25.61;100848.33;1701508;84;20207;-67
2021/04/15 06:05:31;;;;;;;;;;;;;;;29.92;24.98;100843.99;1701465;84;20324;-70
2021/04/15 06:08:04;;;;;;;;;;;;;;;30.37;24.59;100850.55;1700549;84;20209;-64
2021/04/15 06:10:38;;;;;;;;;;;;;;;30.84;23.65;100848.92;1701207;84;20205;-63
2021/04/15 06:13:22;;;;;;;;;;;;;;;31.09;23.42;100854.63;1702197;84;20186;-71
2021/04/15 06:15:58;;;;;;;;;;;;;;;31.12;23.00;100854.66;1698304;84;20206;-63
2021/04/15 06:18:36;;;;;;;;;;;;;;;30.86;23.16;100863.00;1700312;84;20639;-65
2021/04/15 06:21:26;;;;;;;;;;;;;;;30.92;23.23;100855.80;1700505;84;20310;-72
2021/04/15 06:24:09;;;;;;;;;;;;;;;31.21;22.91;100857.99;1701675;84;20309;-73
2021/04/15 06:26:50;;;;;;;;;;;;;;;31.53;22.68;100860.70;1680823;84;20277;-69
2021/04/15 06:29:27;;;;;;;;;;;;;;;31.75;22.20;100862.77;1701750;84;20321;-71
2021/04/15 06:32:01;;;;;;;;;;;;;;;31.69;21.83;100859.73;1700767;84;20327;-71
2021/04/15 06:34:34;;;;;;;;;;;;;;;31.53;21.91;100856.64;1681577;84;20384;-63
2021/04/15 06:37:26;;;;;;;;;;;;;;;31.23;22.02;100863.13;1700493;84;20300;-65
2021/04/15 06:40:05;;;;;;;;;;;;;;;31.00;22.42;100860.20;1691699;84;20232;-73
2021/04/15 06:42:49;;;;;;;;;;;;;;;31.09;22.44;100860.05;1688091;84;20453;-68
2021/04/15 06:45:31;;;;;;;;;;;;;;;31.27;22.06;100849.36;1706836;84;20722;-65
2021/04/15 06:48:34;;;;;;;;;;;;;;;31.25;22.22;100846.92;1704970;84;20329;-69
2021/04/15 06:51:19;;;;;;;;;;;;;;;31.35;22.13;100848.08;1705222;84;20405;-65
2021/04/15 06:54:11;;;;;;;;;;;;;;;31.39;22.08;100848.66;1707405;84;20320;-74
2021/04/15 06:56:53;;;;;;;;;;;;;;;31.54;21.99;100849.34;1704927;82;20363;-66
2021/04/15 06:59:28;;;;;;;;;;;;;;;31.60;21.66;100831.52;1697687;84;20383;-73
2021/04/15 07:02:13;;;;;;;;;;;;;;;31.74;21.53;100830.55;1701856;84;20203;-68
2021/04/15 07:04:48;;;;;;;;;;;;;;;31.99;21.39;100836.66;1699346;84;20283;-69
2021/04/15 07:07:30;;;;;;;;;;;;;;;32.32;20.35;100834.91;1698795;84;20829;-68
2021/04/15 07:10:41;;;;;;;;;;;;;;;32.73;19.35;100834.00;1699082;84;20306;-69
2021/04/15 07:13:24;;;;;;;;;;;;;;;32.93;19.08;100838.66;1697521;83;20195;-70
2021/04/15 07:16:25;;;;;;;;;;;;;;;32.96;18.76;100834.05;1699126;84;20359;-69
2021/04/15 07:19:21;;;;;;;;;;;;;;;32.93;18.40;100831.88;1645144;84;20222;-71
2021/04/15 07:22:11;;;;;;;;;;;;;;;32.91;18.78;100829.41;1698683;84;20204;-70
2021/04/15 07:25:04;;;;;;;;;;;;;;;33.05;18.06;100828.39;1698978;84;20220;-67
2021/04/15 07:28:09;;;;;;;;;;;;;;;33.32;17.73;100822.70;1695305;84;20271;-72
2021/04/15 07:30:45;;;;;;;;;;;;;;;33.34;17.80;100824.06;1699089;84;20350;-69
2021/04/15 07:33:47;;;;;;;;;;;;;;;33.31;17.61;100823.78;1697897;84;20290;-74
2021/04/15 07:40:20;;;;;;;;;;;;;;;32.54;18.40;100817.95;1612490;89;20298;-73
2021/04/15 07:43:06;;;;;;;;;;;;;;;32.84;18.49;100816.66;1698515;84;20387;-67
2021/04/15 07:46:05;;;;;;;;;;;;;;;33.23;18.15;100814.27;1700497;84;20245;-69
2021/04/15 07:49:00;;;;;;;;;;;;;;;33.62;17.35;100807.76;1698056;84;20274;-72
2021/04/15 07:52:09;;;;;;;;;;;;;;;33.63;17.08;100803.40;1699351;84;20279;-73
2021/04/15 07:54:45;;;;;;;;;;;;;;;33.86;16.80;100797.39;1699301;84;20307;-74
2021/04/15 07:57:30;;;;;;;;;;;;;;;34.03;16.12;100799.77;1699264;84;20424;-72
2021/04/15 08:00:38;;;;;;;;;;;;;;;34.09;16.09;100794.59;1699882;83;20217;-68
2021/04/15 08:03:19;;;;;;;;;;;;;;;34.30;15.95;100798.03;1700641;84;20321;-66
2021/04/15 08:06:15;;;;;;;;;;;;;;;34.36;15.78;100783.33;1701699;84;20697;-69
2021/04/15 08:09:03;;;;;;;;;;;;;;;34.43;15.78;100787.38;1700444;84;20186;-64
2021/04/15 08:12:08;;;;;;;;;;;;;;;34.54;15.17;100775.91;1701897;84;20201;-70
2021/04/15 08:14:50;;;;;;;;;;;;;;;34.46;14.76;100776.48;1701452;84;20696;-69
2021/04/15 08:17:39;;;;;;;;;;;;;;;34.05;14.63;100779.13;1701935;84;20194;-64
2021/04/15 08:20:24;;;;;;;;;;;;;;;33.52;14.94;100771.09;1700043;84;20214;-69
2021/04/15 08:23:21;;;;;;;;;;;;;;;33.19;15.43;100771.14;1700512;84;20308;-69
2021/04/15 08:26:18;;;;;;;;;;;;;;;32.59;15.92;100770.53;1701493;84;20209;-68
2021/04/15 08:29:06;;;;;;;;;;;;;;;32.34;16.21;100771.78;1654360;86;20215;-68
2021/04/15 08:32:15;;;;;;;;;;;;;;;32.27;16.43;100763.91;1694769;84;20225;-63
2021/04/15 08:35:00;;;;;;;;;;;;;;;32.31;16.04;100764.20;1699959;84;20225;-67
2021/04/15 08:37:40;;;;;;;;;;;;;;;32.14;16.09;100762.25;1699740;84;20221;-72
2021/04/15 08:40:19;;;;;;;;;;;;;;;31.99;16.18;100754.88;1700340;84;20217;-68
2021/04/15 08:43:02;;;;;;;;;;;;;;;31.72;16.43;100750.92;1699824;84;20194;-70
2021/04/15 08:46:00;;;;;;;;;;;;;;;31.56;16.80;100747.05;1701418;84;20684;-67
2021/04/15 08:48:59;;;;;;;;;;;;;;;31.74;16.84;100754.18;1700794;84;20217;-72
2021/04/15 08:51:48;;;;;;;;;;;;;;;32.04;16.64;100748.66;1743783;81;20288;-67
2021/04/15 08:54:46;;;;;;;;;;;;;;;32.23;16.50;100748.45;1741013;81;20365;-66
2021/04/15 08:57:57;;;;;;;;;;;;;;;32.19;16.25;100741.95;1741677;82;20393;-64
2021/04/15 09:00:39;;;;;;;;;;;;;;;31.67;16.58;100745.48;1740121;82;20388;-62
2021/04/15 09:03:20;;;;;;;;;;;;;;;31.05;17.12;100740.44;1717963;82;20640;-63
2021/04/15 09:06:20;;;;;;;;;;;;;;;30.92;17.36;100737.66;1740404;82;20662;-62
2021/04/15 09:09:07;;;;;;;;;;;;;;;31.01;17.21;100732.58;1711971;84;20211;-65
2021/04/15 09:11:55;;;;;;;;;;;;;;;30.33;17.64;100740.00;1708721;84;20345;-66
2021/04/15 09:14:34;;;;;;;;;;;;;;;28.95;18.51;100738.83;1711694;84;20267;-64
2021/04/15 09:17:17;;;;;;;;;;;;;;;27.78;19.70;100738.96;1696730;84;20226;-60
2021/04/15 09:20:12;;;;;;;;;;;;;;;27.31;20.33;100734.12;1711320;84;20282;-68
2021/04/15 09:23:03;;;;;;;;;;;;;;;27.09;20.67;100722.30;1681851;84;20715;-68
2021/04/15 09:26:01;;;;;;;;;;;;;;;26.66;21.11;100728.75;1672209;86;20450;-63
2021/04/15 09:33:00;;;;;;;;;;;;;;;26.05;21.63;100730.80;1703627;84;20299;-60
2021/04/15 09:35:48;;;;;;;;;;;;;;;25.38;22.25;100731.20;1702006;84;20655;-65
2021/04/15 09:38:57;;;;;;;;;;;;;;;24.68;23.80;100727.52;1703469;84;20294;-64
2021/04/15 09:41:50;;;;;;;;;;;;;;;24.30;24.33;100722.70;1701810;84;20703;-65
2021/04/15 09:48:43;;;;;;;;;;;;;;;23.74;25.40;100721.96;1703627;84;20344;-66
2021/04/15 09:51:28;;;;;;;;;;;;;;;23.40;25.96;100723.06;1698496;84;20196;-65
2021/04/15 09:54:06;;;;;;;;;;;;;;;23.14;26.50;100729.73;1698681;84;20191;-66
2021/04/15 09:56:59;;;;;;;;;;;;;;;22.77;26.92;100721.83;1702087;84;20699;-65
2021/04/15 09:59:35;;;;;;;;;;;;;;;22.45;27.18;100723.08;1696748;84;20646;-62
2021/04/15 10:02:30;;;;;;;;;;;;;;;22.20;27.85;100724.13;1697151;83;20299;-64
2021/04/15 10:05:05;;;;;;;;;;;;;;;22.07;28.75;100715.56;1696847;84;20679;-61
2021/04/15 10:12:11;;;;;;;;;;;;;;;22.10;28.93;100711.67;1696865;84;20314;-63
2021/04/15 10:15:05;;;;;;;;;;;;;;;22.03;29.08;100718.32;1683086;84;20215;-67
2021/04/15 10:18:06;;;;;;;;;;;;;;;21.87;29.17;100713.84;1690777;84;20800;-67
2021/04/15 10:21:08;;;;;;;;;;;;;;;21.79;29.24;100717.45;1677374;84;20208;-69
2021/04/15 10:24:01;;;;;;;;;;;;;;;21.73;29.20;100710.77;1697039;84;20784;-66
2021/04/15 10:26:43;;;;;;;;;;;;;;;21.71;29.20;100706.15;1696681;84;20764;-68
2021/04/15 10:29:33;;;;;;;;;;;;;;;21.56;29.27;100714.26;1698001;84;20384;-67
2021/04/15 10:32:28;;;;;;;;;;;;;;;21.41;29.50;100712.20;1696761;84;20216;-67
2021/04/15 10:35:07;;;;;;;;;;;;;;;21.17;29.79;100705.48;1698177;84;20324;-62
2021/04/15 10:38:15;;;;;;;;;;;;;;;20.94;30.15;100713.36;1696407;84;20223;-69
2021/04/15 10:41:13;;;;;;;;;;;;;;;20.89;30.62;100708.61;1696626;83;20220;-66
2021/04/15 10:43:54;;;;;;;;;;;;;;;20.94;30.51;100708.03;1696786;84;20211;-70
2021/04/15 10:46:40;;;;;;;;;;;;;;;20.94;30.76;100698.72;1697555;84;20324;-64
2021/04/15 10:49:33;;;;;;;;;;;;;;;20.87;30.96;100703.16;1698367;84;20212;-65
2021/04/15 10:52:39;;;;;;;;;;;;;;;20.74;31.35;100704.69;1700525;84;20255;-66
2021/04/15 10:59:11;;;;;;;;;;;;;;;20.30;31.96;100704.55;1698592;84;20223;-68
2021/04/15 11:01:45;;;;;;;;;;;;;;;20.10;32.50;100702.45;1679340;84;20323;-65
2021/04/15 11:08:21;;;;;;;;;;;;;;;19.90;33.22;100697.39;1697375;84;20306;-70
2021/04/15 11:11:12;;;;;;;;;;;;;;;19.90;33.35;100693.91;1696861;84;20243;-59
2021/04/15 11:13:47;;;;;;;;;;;;;;;19.99;33.43;100692.81;1693582;84;20232;-72
2021/04/15 11:16:21;;;;;;;;;;;;;;;20.07;33.47;100688.20;1697900;84;20429;-71
2021/04/15 11:18:54;;;;;;;;;;;;;;;20.02;33.34;100696.41;1697760;83;20758;-71
2021/04/15 11:21:30;;;;;;;;;;;;;;;19.83;33.73;100694.33;1696844;84;20216;-66
2021/04/15 11:24:26;;;;;;;;;;;;;;;19.66;34.00;100694.20;1698319;84;20196;-62
2021/04/15 11:27:02;;;;;;;;;;;;;;;19.58;34.55;100692.98;1697576;84;20212;-71
2021/04/15 11:29:40;;;;;;;;;;;;;;;19.57;34.80;100684.69;1698521;84;20216;-68
2021/04/15 11:32:24;;;;;;;;;;;;;;;19.63;34.84;100682.64;1696941;84;20779;-65
2021/04/15 11:35:12;;;;;;;;;;;;;;;19.78;34.84;100672.80;1698362;84;20330;-71
2021/04/15 11:37:46;;;;;;;;;;;;;;;19.97;34.70;100671.72;1697239;83;20325;-70
2021/04/15 11:40:35;;;;;;;;;;;;;;;20.18;34.90;100667.47;1698904;84;20231;-65
2021/04/15 11:43:31;;;;;;;;;;;;;;;20.31;33.81;100668.45;1696726;84;20328;-70
2021/04/15 11:46:19;;;;;;;;;;;;;;;20.27;33.49;100662.38;1698368;84;20316;-70
2021/04/15 11:49:10;;;;;;;;;;;;;;;20.20;33.23;100662.28;1698609;84;20227;-67
2021/04/15 11:51:56;;;;;;;;;;;;;;;20.11;33.30;100664.72;1679286;84;20309;-73
2021/04/15 11:54:36;;;;;;;;;;;;;;;19.98;33.81;100665.41;1698782;84;20797;-67
2021/04/15 11:57:21;;;;;;;;;;;;;;;19.87;34.21;100663.22;1700555;84;20358;-70
2021/04/15 12:00:03;;;;;;;;;;;;;;;19.75;34.62;100661.24;1699826;84;20411;-66
2021/04/15 12:02:51;;;;;;;;;;;;;;;19.58;35.23;100665.09;1699713;84;20192;-65
2021/04/15 12:05:32;;;;;;;;;;;;;;;19.37;35.31;100665.31;1651185;86;20236;-65
2021/04/15 12:08:25;;;;;;;;;;;;;;;19.19;35.46;100663.50;1684202;84;20327;-69
2021/04/15 12:11:03;;;;;;;;;;;;;;;19.03;35.82;100658.86;1682591;85;20211;-75
2021/04/15 12:13:50;;;;;;;;;;;;;;;18.96;36.23;100655.28;1682952;85;20194;-66
2021/04/15 12:16:41;;;;;;;;;;;;;;;18.94;36.19;100655.44;1684639;85;20669;-66
2021/04/15 12:19:28;;;;;;;;;;;;;;;18.94;36.43;100657.30;1682909;85;20319;-64
2021/04/15 12:22:06;;;;;;;;;;;;;;;18.90;36.55;100650.68;1683478;85;20239;-67
2021/04/15 12:24:47;;;;;;;;;;;;;;;18.93;36.55;100650.33;1684383;85;20700;-67
2021/04/15 12:27:26;;;;;;;;;;;;;;;18.98;36.65;100646.63;1684015;85;20714;-66
2021/04/15 12:30:14;;;;;;;;;;;;;;;19.06;36.58;100646.56;1684356;85;20699;-61
2021/04/15 12:33:05;;;;;;;;;;;;;;;19.19;36.34;100647.58;1682970;85;20692;-63
2021/04/15 12:35:44;;;;;;;;;;;;;;;19.27;36.50;100645.34;1682822;85;20313;-60
2021/04/15 12:38:22;;;;;;;;;;;;;;;19.35;36.12;100635.45;1683490;85;20213;-70
2021/04/15 12:40:59;;;;;;;;;;;;;;;19.43;35.95;100635.89;1682827;85;20365;-61
2021/04/15 12:43:35;;;;;;;;;;;;;;;19.52;35.44;100636.61;1682453;85;20354;-70
2021/04/15 12:46:11;;;;;;;;;;;;;;;19.54;35.38;100635.91;1682657;85;20241;-61
2021/04/15 12:48:46;;;;;;;;;;;;;;;19.56;34.85;100633.39;1683182;85;20213;-71
2021/04/15 12:51:25;;;;;;;;;;;;;;;19.47;35.17;100631.85;1684195;85;20253;-67
2021/04/15 12:53:59;;;;;;;;;;;;;;;19.46;35.26;100634.20;1683132;85;20197;-63
2021/04/15 12:56:42;;;;;;;;;;;;;;;19.42;35.38;100632.41;1677231;84;20377;-67
2021/04/15 13:03:24;;;;;;;;;;;;;;;19.26;35.91;100629.91;1675506;85;20213;-70
2021/04/15 13:06:00;;;;;;;;;;;;;;;19.11;36.30;100626.91;1676897;85;20194;-65
2021/04/15 13:08:47;;;;;;;;;;;;;;;19.00;36.46;100622.90;1676146;85;20332;-66
2021/04/15 13:11:23;;;;;;;;;;;;;;;18.88;36.54;100623.51;1676804;85;20246;-69
2021/04/15 13:14:04;;;;;;;;;;;;;;;18.74;36.58;100624.64;1675942;85;20684;-61
2021/04/15 13:16:41;;;;;;;;;;;;;;;18.64;36.73;100618.77;1676745;85;20221;-66
2021/04/15 13:19:24;;;;;;;;;;;;;;;18.56;36.74;100614.84;1675704;85;20245;-64
2021/04/15 13:22:06;;;;;;;;;;;;;;;18.51;36.49;100615.08;1675087;84;20210;-60
2021/04/15 13:24:49;;;;;;;;;;;;;;;18.48;36.41;100612.77;1675684;85;20205;-60
2021/04/15 13:27:38;;;;;;;;;;;;;;;18.47;37.07;100619.89;1675439;84;20695;-65
2021/04/15 13:30:33;;;;;;;;;;;;;;;18.52;37.25;100615.38;1676788;85;20354;-66
2021/04/15 13:37:31;;;;;;;;;;;;;;;18.61;36.82;100613.80;1677079;85;20281;-66
2021/04/15 13:40:24;;;;;;;;;;;;;;;18.65;36.52;100611.11;1675485;85;20240;-60
2021/04/15 13:42:57;;;;;;;;;;;;;;;18.71;36.46;100605.10;1668059;85;20325;-64
2021/04/15 13:45:40;;;;;;;;;;;;;;;18.74;36.49;100614.03;1676986;85;20648;-69
2021/04/15 13:48:15;;;;;;;;;;;;;;;18.68;36.72;100612.58;1676831;85;20647;-74
2021/04/15 13:54:46;;;;;;;;;;;;;;;18.70;36.73;100611.40;1675741;85;20429;-69
2021/04/15 13:57:20;;;;;;;;;;;;;;;18.78;36.45;100606.03;1677305;85;20273;-70
2021/04/15 13:59:57;;;;;;;;;;;;;;;18.85;36.45;100600.81;1678052;85;20282;-70
2021/04/15 14:02:31;;;;;;;;;;;;;;;18.91;36.38;100601.44;1678863;85;20329;-69
2021/04/15 14:05:05;;;;;;;;;;;;;;;18.99;36.09;100601.33;1658698;85;20277;-68
2021/04/15 14:07:38;;;;;;;;;;;;;;;19.02;35.83;100600.15;1658554;85;20382;-69
2021/04/15 14:10:17;;;;;;;;;;;;;;;19.05;35.77;100597.14;1677091;85;20353;-67
2021/04/15 14:12:56;;;;;;;;;;;;;;;19.07;35.81;100587.99;1674060;83;20198;-68
2021/04/15 14:15:47;;;;;;;;;;;;;;;19.10;35.91;100594.77;1701295;84;20314;-69
2021/04/15 14:18:36;;;;;;;;;;;;;;;19.14;35.99;100598.20;1701949;83;20272;-70
2021/04/15 14:21:24;;;;;;;;;;;;;;;19.19;35.96;100596.31;1693931;84;20168;-67
2021/04/15 14:24:18;;;;;;;;;;;;;;;19.18;35.74;100591.50;1692185;83;20216;-69
2021/04/15 14:26:53;;;;;;;;;;;;;;;19.13;35.70;100598.39;1700130;84;20207;-67
2021/04/15 14:29:27;;;;;;;;;;;;;;;19.06;35.89;100598.27;1704106;84;20314;-69
2021/04/15 14:32:03;;;;;;;;;;;;;;;19.00;35.94;100605.65;1681787;84;20383;-66
2021/04/15 14:34:41;;;;;;;;;;;;;;;18.95;36.08;100599.23;1667415;85;20281;-69
2021/04/15 14:37:18;;;;;;;;;;;;;;;18.92;36.21;100596.93;1677984;85;20174;-67
2021/04/15 14:39:53;;;;;;;;;;;;;;;18.87;36.33;100599.33;1670805;85;20198;-68
2021/04/15 14:42:31;;;;;;;;;;;;;;;18.78;36.20;100606.52;1706922;84;20267;-69
2021/04/15 14:45:20;;;;;;;;;;;;;;;18.69;36.24;100599.66;1679436;85;20273;-67
2021/04/15 14:47:55;;;;;;;;;;;;;;;18.61;36.40;100605.02;1706116;84;20358;-68
2021/04/15 14:50:33;;;;;;;;;;;;;;;18.51;36.36;100600.49;1695297;84;20269;-69
2021/04/15 14:53:17;;;;;;;;;;;;;;;18.40;36.36;100588.44;1669830;85;20421;-69